Time;durP1;ratioP1;P1;durP2;ratioP2;P2;SDS_P1;SDS_P2;PMS_P1;PMS_P2;Temp;Humidity;BMP_temperature;BMP_pressure;BME280_temperature;BME280_humidity;BME280_pressure;Samples;Min_cycle;Max_cycle;Signal;HPM_P1;HPM_P2
2021/03/21 00:02:03;;;;;;;;;;;18.70;99.90;;;;;;5025622;28;19913;-83
2021/03/21 00:04:29;;;;;;;;;;;18.80;99.90;;;;;;5024131;28;19985;-86
2021/03/21 00:06:56;;;;;;;;;;;18.80;99.90;;;;;;4994573;28;20328;-86
2021/03/21 00:09:23;;;;;;;;;;;18.80;99.90;;;;;;5011495;28;19914;-82
2021/03/21 00:11:49;;;;;;;;;;;18.70;99.90;;;;;;5011351;28;20367;-78
2021/03/21 00:14:16;;;;;;;;;;;18.70;99.90;;;;;;4993954;28;20276;-80
2021/03/21 00:16:43;;;;;;;;;;;18.70;99.90;;;;;;4996962;28;19909;-80
2021/03/21 00:19:10;;;;;;;;;;;18.70;99.90;;;;;;5011716;28;19953;-79
2021/03/21 00:21:37;;;;;;;;;;;18.80;99.90;;;;;;5007547;28;19921;-79
2021/03/21 00:24:05;;;;;;;;;;;18.80;99.90;;;;;;5011227;28;19972;-80
2021/03/21 00:26:31;;;;;;;;;;;18.80;99.90;;;;;;5006208;28;19920;-81
2021/03/21 00:28:59;;;;;;;;;;;18.70;99.90;;;;;;5011246;28;20304;-82
2021/03/21 00:31:26;;;;;;;;;;;18.70;99.90;;;;;;5006014;28;20432;-80
2021/03/21 00:33:53;;;;;;;;;;;18.70;99.90;;;;;;5017998;28;19917;-83
2021/03/21 00:36:20;;;;;;;;;;;18.70;99.90;;;;;;5012164;28;20324;-84
2021/03/21 00:38:49;;;;;;;;;;;18.60;99.90;;;;;;5015951;28;19939;-81
2021/03/21 00:41:18;;;;;;;;;;;18.60;99.90;;;;;;5014280;28;19917;-83
2021/03/21 00:43:44;;;;;;;;;;;18.60;99.90;;;;;;5022750;28;19912;-84
2021/03/21 00:46:12;;;;;;;;;;;18.60;99.90;;;;;;5010777;28;20317;-80
2021/03/21 00:48:40;;;;;;;;;;;18.60;99.90;;;;;;5006924;28;19935;-83
2021/03/21 00:51:07;;;;;;;;;;;18.60;99.90;;;;;;5011815;28;20375;-79
2021/03/21 00:53:34;;;;;;;;;;;18.50;99.90;;;;;;5014002;28;19917;-82
2021/03/21 00:56:01;;;;;;;;;;;18.50;99.90;;;;;;5008781;28;19913;-80
2021/03/21 00:58:28;;;;;;;;;;;18.50;99.90;;;;;;5010638;28;19929;-79
2021/03/21 01:00:56;;;;;;;;;;;18.60;99.90;;;;;;5014298;28;19945;-81
2021/03/21 01:03:23;;;;;;;;;;;18.60;99.90;;;;;;5010367;28;19952;-81
2021/03/21 01:05:52;;;;;;;;;;;18.60;99.90;;;;;;5009975;28;20325;-78
2021/03/21 01:08:23;;;;;;;;;;;18.60;99.90;;;;;;5009553;28;20419;-79
2021/03/21 01:10:52;;;;;;;;;;;18.60;99.90;;;;;;5007533;28;19925;-80
2021/03/21 01:13:19;;;;;;;;;;;18.50;99.90;;;;;;5010064;28;20367;-79
2021/03/21 01:15:46;;;;;;;;;;;18.60;99.90;;;;;;5009350;28;20170;-79
2021/03/21 01:18:17;;;;;;;;;;;18.60;99.90;;;;;;4990674;28;19940;-78
2021/03/21 01:20:44;;;;;;;;;;;18.60;99.90;;;;;;5009700;28;19966;-82
2021/03/21 01:23:11;;;;;;;;;;;18.60;99.90;;;;;;5010305;28;19918;-81
2021/03/21 01:25:38;;;;;;;;;;;18.50;99.90;;;;;;5008590;28;19927;-79
2021/03/21 01:28:21;;;;;;;;;;;18.50;99.90;;;;;;5009414;28;19909;-81
2021/03/21 01:30:49;;;;;;;;;;;18.50;99.90;;;;;;4992734;28;19909;-81
2021/03/21 01:33:17;;;;;;;;;;;18.60;99.90;;;;;;5009820;28;19913;-82
2021/03/21 01:35:44;;;;;;;;;;;18.60;99.90;;;;;;5008729;28;19914;-80
2021/03/21 01:38:11;;;;;;;;;;;18.70;99.90;;;;;;5015585;28;19968;-79
2021/03/21 01:40:38;;;;;;;;;;;18.70;99.90;;;;;;5011516;28;19913;-83
2021/03/21 01:43:04;;;;;;;;;;;18.80;99.90;;;;;;5009279;28;19914;-82
2021/03/21 01:45:33;;;;;;;;;;;18.90;99.90;;;;;;5010097;28;19921;-81
2021/03/21 01:48:20;;;;;;;;;;;19.00;99.90;;;;;;5008728;28;19913;-81
2021/03/21 01:50:49;;;;;;;;;;;19.30;99.90;;;;;;5008299;28;19962;-82
2021/03/21 01:53:18;;;;;;;;;;;19.30;99.90;;;;;;5011033;28;19910;-80
2021/03/21 01:55:48;;;;;;;;;;;19.30;99.90;;;;;;5009436;28;20006;-85
2021/03/21 01:58:16;;;;;;;;;;;19.20;99.90;;;;;;4990135;28;20063;-84
2021/03/21 02:00:43;;;;;;;;;;;19.10;99.90;;;;;;4992731;28;19951;-83
2021/03/21 02:03:09;;;;;;;;;;;19.00;99.90;;;;;;5009617;28;19914;-80
2021/03/21 02:05:40;;;;;;;;;;;19.00;99.90;;;;;;5008702;28;20012;-82
2021/03/21 02:08:27;;;;;;;;;;;18.90;99.90;;;;;;5009113;28;20268;-82
2021/03/21 02:11:06;;;;;;;;;;;18.80;99.90;;;;;;5010056;28;20343;-83
2021/03/21 02:13:45;;;;;;;;;;;18.70;99.90;;;;;;4992726;28;19953;-82
2021/03/21 02:16:18;;;;;;;;;;;18.70;99.90;;;;;;5009358;28;19920;-84
2021/03/21 02:18:45;;;;;;;;;;;18.60;99.90;;;;;;5008636;28;19913;-78
2021/03/21 02:21:15;;;;;;;;;;;18.50;99.90;;;;;;5008436;28;19967;-81
2021/03/21 02:23:52;;;;;;;;;;;18.40;99.90;;;;;;4989068;28;19921;-79
2021/03/21 02:26:31;;;;;;;;;;;18.30;99.90;;;;;;5013418;28;19932;-80
2021/03/21 02:29:33;;;;;;;;;;;18.30;99.90;;;;;;4992687;28;20002;-77
2021/03/21 02:32:07;;;;;;;;;;;18.40;99.90;;;;;;5049964;28;20334;-82
2021/03/21 02:34:52;;;;;;;;;;;18.30;99.90;;;;;;5011220;28;19921;-81
2021/03/21 02:37:42;;;;;;;;;;;18.30;99.90;;;;;;5009627;28;19914;-81
2021/03/21 02:40:21;;;;;;;;;;;18.40;99.90;;;;;;5009072;28;19962;-77
2021/03/21 02:43:11;;;;;;;;;;;18.50;99.90;;;;;;5010752;28;19913;-81
2021/03/21 02:45:39;;;;;;;;;;;18.50;99.90;;;;;;5008994;28;19978;-77
2021/03/21 02:48:25;;;;;;;;;;;18.50;99.90;;;;;;5004267;28;20004;-78
2021/03/21 02:50:54;;;;;;;;;;;18.60;99.90;;;;;;5006595;28;19967;-81
2021/03/21 02:53:27;;;;;;;;;;;18.60;99.90;;;;;;4991730;28;20034;-81
2021/03/21 02:55:57;;;;;;;;;;;18.70;99.90;;;;;;5010169;28;19999;-81
2021/03/21 02:58:29;;;;;;;;;;;18.70;99.90;;;;;;4993652;28;20291;-76
2021/03/21 03:00:58;;;;;;;;;;;18.60;99.90;;;;;;4994671;28;20333;-83
2021/03/21 03:03:26;;;;;;;;;;;18.60;99.90;;;;;;5012734;28;20047;-79
2021/03/21 03:05:56;;;;;;;;;;;18.50;99.90;;;;;;5011589;28;19943;-78
2021/03/21 03:08:41;;;;;;;;;;;18.60;99.90;;;;;;5013141;28;19917;-81
2021/03/21 03:11:27;;;;;;;;;;;18.50;99.90;;;;;;5011924;28;20271;-79
2021/03/21 03:13:59;;;;;;;;;;;18.50;99.90;;;;;;5010871;28;19936;-75
2021/03/21 03:16:33;;;;;;;;;;;18.50;99.90;;;;;;5011969;28;19917;-78
2021/03/21 03:19:05;;;;;;;;;;;18.60;99.90;;;;;;4994655;28;20359;-81
2021/03/21 03:21:35;;;;;;;;;;;18.60;99.90;;;;;;5006664;28;19916;-81
2021/03/21 03:24:28;;;;;;;;;;;18.70;99.90;;;;;;5032955;28;19926;-79
2021/03/21 03:27:00;;;;;;;;;;;18.80;99.90;;;;;;5053050;28;19940;-80
2021/03/21 03:29:39;;;;;;;;;;;18.80;99.90;;;;;;5074341;28;19938;-79
2021/03/21 03:32:14;;;;;;;;;;;19.00;99.90;;;;;;5074003;28;20020;-82
2021/03/21 03:34:52;;;;;;;;;;;18.90;99.90;;;;;;5074162;28;19909;-82
2021/03/21 03:37:19;;;;;;;;;;;19.00;99.90;;;;;;5069154;28;19912;-80
2021/03/21 03:39:46;;;;;;;;;;;19.00;99.90;;;;;;5065738;28;19912;-80
2021/03/21 03:42:31;;;;;;;;;;;18.90;99.90;;;;;;5073722;28;19913;-82
2021/03/21 03:45:15;;;;;;;;;;;18.80;99.90;;;;;;5072468;28;19927;-80
2021/03/21 03:48:00;;;;;;;;;;;18.70;99.90;;;;;;5069692;28;20357;-80
2021/03/21 03:50:27;;;;;;;;;;;18.70;99.90;;;;;;5074019;28;19982;-77
2021/03/21 03:52:57;;;;;;;;;;;18.60;99.90;;;;;;5057978;28;20693;-76
2021/03/21 03:55:44;;;;;;;;;;;18.50;99.90;;;;;;5068751;28;19938;-78
2021/03/21 03:58:19;;;;;;;;;;;18.50;99.90;;;;;;5098228;28;19966;-80
2021/03/21 04:00:51;;;;;;;;;;;18.40;99.90;;;;;;5065763;28;20385;-80
2021/03/21 04:03:30;;;;;;;;;;;18.40;99.90;;;;;;5071149;28;20343;-81
2021/03/21 04:05:58;;;;;;;;;;;18.40;99.90;;;;;;5072007;28;19943;-79
2021/03/21 04:08:26;;;;;;;;;;;18.30;99.90;;;;;;5072045;28;19924;-81
2021/03/21 04:11:06;;;;;;;;;;;18.20;99.90;;;;;;5073643;28;20007;-81
2021/03/21 04:13:37;;;;;;;;;;;18.20;99.90;;;;;;5070871;28;20295;-77
2021/03/21 04:16:08;;;;;;;;;;;18.10;99.90;;;;;;5074299;28;19973;-79
2021/03/21 04:18:53;;;;;;;;;;;18.10;99.90;;;;;;5075771;28;19912;-82
2021/03/21 04:21:32;;;;;;;;;;;18.10;99.90;;;;;;5072542;28;19909;-80
2021/03/21 04:24:13;;;;;;;;;;;18.10;99.90;;;;;;5039721;28;19926;-81
2021/03/21 04:26:40;;;;;;;;;;;18.10;99.90;;;;;;5010741;28;20016;-78
2021/03/21 04:29:16;;;;;;;;;;;18.10;99.90;;;;;;5010531;28;19975;-77
2021/03/21 04:31:43;;;;;;;;;;;18.10;99.90;;;;;;5013237;28;19917;-80
2021/03/21 04:34:12;;;;;;;;;;;18.00;99.90;;;;;;5012346;28;19966;-81
2021/03/21 04:36:40;;;;;;;;;;;18.10;99.90;;;;;;5012141;28;19913;-80
2021/03/21 04:39:11;;;;;;;;;;;18.10;99.90;;;;;;5012384;28;20412;-81
2021/03/21 04:41:46;;;;;;;;;;;18.10;99.90;;;;;;5011088;28;19920;-80
2021/03/21 04:44:30;;;;;;;;;;;18.10;99.90;;;;;;5009933;28;20008;-79
2021/03/21 04:47:17;;;;;;;;;;;18.00;99.90;;;;;;5010452;28;20271;-79
2021/03/21 04:49:44;;;;;;;;;;;18.00;99.90;;;;;;5021805;28;20279;-80
2021/03/21 04:52:21;;;;;;;;;;;17.90;99.90;;;;;;4992504;28;19920;-80
2021/03/21 04:54:49;;;;;;;;;;;17.90;99.90;;;;;;4992375;28;19914;-80
2021/03/21 04:57:33;;;;;;;;;;;17.90;99.90;;;;;;5011100;28;20011;-80
2021/03/21 05:00:01;;;;;;;;;;;17.90;99.90;;;;;;5010749;28;19914;-81
2021/03/21 05:02:31;;;;;;;;;;;17.90;99.90;;;;;;4994543;28;20275;-81
2021/03/21 05:05:17;;;;;;;;;;;17.90;99.90;;;;;;5011120;28;19953;-79
2021/03/21 05:07:44;;;;;;;;;;;18.00;99.90;;;;;;5005849;28;19913;-77
2021/03/21 05:10:19;;;;;;;;;;;18.00;99.90;;;;;;4993400;28;19916;-80
2021/03/21 05:12:49;;;;;;;;;;;18.00;99.90;;;;;;5010674;28;20432;-81
2021/03/21 05:15:22;;;;;;;;;;;18.00;99.90;;;;;;4995557;28;19921;-81
2021/03/21 05:18:06;;;;;;;;;;;18.00;99.90;;;;;;5007318;28;20359;-80
2021/03/21 05:20:51;;;;;;;;;;;18.00;99.90;;;;;;5015157;28;19911;-77
2021/03/21 05:23:24;;;;;;;;;;;17.90;99.90;;;;;;4995575;28;20378;-79
2021/03/21 05:25:57;;;;;;;;;;;17.90;99.90;;;;;;5011486;28;19952;-77
2021/03/21 05:28:43;;;;;;;;;;;17.90;99.90;;;;;;5003979;28;19956;-77
2021/03/21 05:31:10;;;;;;;;;;;17.90;99.90;;;;;;5006214;28;20485;-76
2021/03/21 05:33:36;;;;;;;;;;;17.90;99.90;;;;;;5007994;28;19924;-76
2021/03/21 05:36:10;;;;;;;;;;;17.90;99.90;;;;;;5022997;28;19945;-78
2021/03/21 05:38:46;;;;;;;;;;;17.90;99.90;;;;;;4997020;28;19917;-76
2021/03/21 05:41:15;;;;;;;;;;;17.90;99.90;;;;;;5009106;28;19920;-77
2021/03/21 05:43:56;;;;;;;;;;;17.90;99.90;;;;;;5015904;28;19921;-76
2021/03/21 05:46:40;;;;;;;;;;;17.90;99.90;;;;;;5005700;28;19913;-78
2021/03/21 05:49:30;;;;;;;;;;;17.90;99.90;;;;;;4994387;28;20004;-78
2021/03/21 05:52:18;;;;;;;;;;;17.80;99.90;;;;;;5013979;28;20278;-78
2021/03/21 05:55:07;;;;;;;;;;;17.90;99.90;;;;;;5016275;28;19921;-79
2021/03/21 05:57:45;;;;;;;;;;;17.90;99.90;;;;;;5009799;28;19913;-78
2021/03/21 06:00:30;;;;;;;;;;;17.90;99.90;;;;;;4991381;28;20035;-78
2021/03/21 06:03:14;;;;;;;;;;;17.90;99.90;;;;;;4991249;28;19918;-76
2021/03/21 06:05:53;;;;;;;;;;;17.90;99.90;;;;;;5008013;28;20328;-78
2021/03/21 06:08:46;;;;;;;;;;;17.90;99.90;;;;;;5008616;28;19921;-78
2021/03/21 06:11:15;;;;;;;;;;;17.90;99.90;;;;;;4993419;28;19910;-78
2021/03/21 06:14:00;;;;;;;;;;;17.90;99.90;;;;;;5009990;28;20379;-77
2021/03/21 06:16:34;;;;;;;;;;;17.90;99.90;;;;;;5009076;28;19943;-75
2021/03/21 06:19:16;;;;;;;;;;;17.90;99.90;;;;;;5008670;28;20014;-78
2021/03/21 06:21:57;;;;;;;;;;;17.80;99.90;;;;;;4991093;28;20369;-78
2021/03/21 06:24:28;;;;;;;;;;;17.80;99.90;;;;;;5008824;28;19928;-79
2021/03/21 06:27:13;;;;;;;;;;;17.80;99.90;;;;;;5010804;28;20424;-79
2021/03/21 06:29:55;;;;;;;;;;;17.80;99.90;;;;;;5084279;28;19941;-79
2021/03/21 06:32:39;;;;;;;;;;;17.80;99.90;;;;;;5029895;28;19906;-76
2021/03/21 06:35:31;;;;;;;;;;;17.70;99.90;;;;;;5023864;28;19959;-78
2021/03/21 06:38:04;;;;;;;;;;;17.80;99.90;;;;;;4976586;28;20437;-76
2021/03/21 06:40:52;;;;;;;;;;;17.90;99.90;;;;;;5012497;28;20313;-78
2021/03/21 06:43:38;;;;;;;;;;;17.90;99.90;;;;;;5005066;28;20323;-79
2021/03/21 06:46:08;;;;;;;;;;;17.90;99.90;;;;;;5012822;28;20023;-78
2021/03/21 06:48:42;;;;;;;;;;;18.00;99.90;;;;;;5012698;28;19944;-77
2021/03/21 06:51:15;;;;;;;;;;;18.00;99.90;;;;;;4993851;28;20271;-77
2021/03/21 06:53:55;;;;;;;;;;;18.00;99.90;;;;;;5016705;28;19906;-78
2021/03/21 06:56:38;;;;;;;;;;;18.00;99.90;;;;;;5027022;28;19918;-79
2021/03/21 06:59:23;;;;;;;;;;;18.00;99.90;;;;;;4994957;28;19993;-78
2021/03/21 07:02:04;;;;;;;;;;;17.90;99.90;;;;;;5012603;28;20022;-79
2021/03/21 07:04:37;;;;;;;;;;;17.90;99.90;;;;;;5011775;28;20406;-77
2021/03/21 07:07:12;;;;;;;;;;;17.80;99.90;;;;;;5012350;28;19914;-76
2021/03/21 07:09:42;;;;;;;;;;;17.80;99.90;;;;;;5012316;28;19917;-75
2021/03/21 07:12:09;;;;;;;;;;;17.80;99.90;;;;;;5012356;28;19909;-79
2021/03/21 07:14:47;;;;;;;;;;;17.80;99.90;;;;;;5012173;28;19914;-78
2021/03/21 07:17:30;;;;;;;;;;;17.80;99.90;;;;;;5012018;28;20061;-77
2021/03/21 07:20:24;;;;;;;;;;;17.80;99.90;;;;;;4993505;28;19921;-81
2021/03/21 07:23:11;;;;;;;;;;;17.90;99.90;;;;;;4994373;28;19932;-78
2021/03/21 07:25:37;;;;;;;;;;;17.90;99.90;;;;;;4997377;28;20354;-76
2021/03/21 07:28:07;;;;;;;;;;;17.90;99.90;;;;;;4993766;28;20303;-76
2021/03/21 07:30:43;;;;;;;;;;;17.90;99.90;;;;;;5012478;28;19909;-79
2021/03/21 07:33:41;;;;;;;;;;;17.90;99.90;;;;;;5010701;28;19921;-79
2021/03/21 07:36:11;;;;;;;;;;;17.90;99.90;;;;;;4987608;28;19922;-77
2021/03/21 07:38:56;;;;;;;;;;;18.00;99.90;;;;;;5011600;28;19918;-76
2021/03/21 07:41:37;;;;;;;;;;;18.00;99.90;;;;;;5010898;28;20359;-79
2021/03/21 07:44:18;;;;;;;;;;;18.00;99.90;;;;;;5009877;28;19921;-75
2021/03/21 07:46:53;;;;;;;;;;;18.10;99.90;;;;;;4994359;28;19939;-78
2021/03/21 07:49:35;;;;;;;;;;;18.10;99.90;;;;;;5010761;28;19913;-76
2021/03/21 07:52:08;;;;;;;;;;;18.20;99.90;;;;;;4995585;28;19913;-77
2021/03/21 07:54:42;;;;;;;;;;;18.20;99.90;;;;;;5004979;28;19917;-80
2021/03/21 07:57:15;;;;;;;;;;;18.20;99.90;;;;;;5023873;28;20371;-75
2021/03/21 07:59:42;;;;;;;;;;;18.20;99.90;;;;;;5011614;28;20303;-77
2021/03/21 08:02:10;;;;;;;;;;;18.20;99.90;;;;;;5010993;28;19921;-76
2021/03/21 08:04:46;;;;;;;;;;;18.20;99.90;;;;;;5025395;28;19928;-74
2021/03/21 08:07:15;;;;;;;;;;;18.30;99.90;;;;;;5014494;28;19932;-74
2021/03/21 08:09:43;;;;;;;;;;;18.30;99.90;;;;;;5014656;28;19921;-75
2021/03/21 08:12:14;;;;;;;;;;;18.30;99.90;;;;;;5011584;28;19982;-78
2021/03/21 08:14:43;;;;;;;;;;;18.30;99.90;;;;;;5011208;28;19920;-77
2021/03/21 08:17:17;;;;;;;;;;;18.20;99.90;;;;;;5024366;28;20387;-78
2021/03/21 08:19:47;;;;;;;;;;;18.20;99.90;;;;;;5010432;28;19997;-76
2021/03/21 08:22:17;;;;;;;;;;;18.20;99.90;;;;;;4991665;28;19917;-75
2021/03/21 08:24:44;;;;;;;;;;;18.20;99.90;;;;;;5010020;28;19974;-75
2021/03/21 08:27:20;;;;;;;;;;;18.20;99.90;;;;;;5008221;28;20008;-77
2021/03/21 08:30:05;;;;;;;;;;;18.20;99.90;;;;;;5011243;28;19914;-77
2021/03/21 08:32:32;;;;;;;;;;;18.20;99.90;;;;;;5011564;28;19913;-78
2021/03/21 08:35:21;;;;;;;;;;;18.30;99.90;;;;;;5011528;28;19963;-78
2021/03/21 08:37:56;;;;;;;;;;;18.30;99.90;;;;;;5016892;28;19910;-80
2021/03/21 08:40:33;;;;;;;;;;;18.30;99.90;;;;;;5011142;28;19952;-77
2021/03/21 08:43:19;;;;;;;;;;;18.30;99.90;;;;;;5011199;28;19917;-78
2021/03/21 08:45:45;;;;;;;;;;;18.30;99.90;;;;;;5011321;28;19921;-81
2021/03/21 08:48:21;;;;;;;;;;;18.30;99.90;;;;;;4992396;28;19916;-75
2021/03/21 08:50:50;;;;;;;;;;;18.30;99.90;;;;;;5011325;28;19970;-76
2021/03/21 08:53:32;;;;;;;;;;;18.30;99.90;;;;;;4993339;28;19961;-75
2021/03/21 08:56:16;;;;;;;;;;;18.30;99.90;;;;;;5007717;28;19917;-75
2021/03/21 08:58:48;;;;;;;;;;;18.30;99.90;;;;;;5020913;28;19996;-77
2021/03/21 09:01:17;;;;;;;;;;;18.30;99.90;;;;;;4996689;28;20004;-75
2021/03/21 09:03:44;;;;;;;;;;;18.30;99.90;;;;;;5005158;28;20361;-75
2021/03/21 09:06:28;;;;;;;;;;;18.30;99.90;;;;;;5018353;28;20017;-75
2021/03/21 09:09:13;;;;;;;;;;;18.30;99.90;;;;;;4991215;28;19917;-76
2021/03/21 09:11:40;;;;;;;;;;;18.30;99.90;;;;;;4998427;28;20295;-76
2021/03/21 09:14:12;;;;;;;;;;;18.40;99.90;;;;;;5008979;28;20040;-77
2021/03/21 09:16:53;;;;;;;;;;;18.40;99.90;;;;;;5017156;28;19946;-77
2021/03/21 09:19:24;;;;;;;;;;;18.50;99.90;;;;;;5009231;28;20020;-80
2021/03/21 09:21:52;;;;;;;;;;;18.50;99.90;;;;;;5008829;28;20420;-75
2021/03/21 09:24:24;;;;;;;;;;;18.50;99.90;;;;;;5013429;28;19964;-78
2021/03/21 09:27:12;;;;;;;;;;;18.50;99.90;;;;;;5011101;28;19998;-81
2021/03/21 09:29:39;;;;;;;;;;;18.50;99.90;;;;;;5009672;28;19917;-82
2021/03/21 09:32:16;;;;;;;;;;;18.50;99.90;;;;;;5009141;28;19936;-75
2021/03/21 09:35:01;;;;;;;;;;;18.50;99.90;;;;;;4991959;28;19914;-77
2021/03/21 09:37:29;;;;;;;;;;;18.60;99.90;;;;;;4999746;28;19913;-80
2021/03/21 09:40:19;;;;;;;;;;;18.50;99.90;;;;;;5010496;28;20367;-80
2021/03/21 09:42:50;;;;;;;;;;;18.50;99.90;;;;;;4994307;28;20240;-79
2021/03/21 09:45:17;;;;;;;;;;;18.50;99.90;;;;;;4976376;28;19954;-76
2021/03/21 09:47:56;;;;;;;;;;;18.50;99.90;;;;;;5009082;28;19921;-80
2021/03/21 09:50:30;;;;;;;;;;;18.50;99.90;;;;;;5010115;28;19922;-86
2021/03/21 09:53:15;;;;;;;;;;;18.50;99.90;;;;;;5011340;28;19914;-77
2021/03/21 09:55:44;;;;;;;;;;;18.50;99.90;;;;;;4996244;28;19913;-76
2021/03/21 09:58:17;;;;;;;;;;;18.40;99.90;;;;;;5009524;28;19916;-80
2021/03/21 10:00:48;;;;;;;;;;;18.40;99.90;;;;;;5006436;28;19920;-76
2021/03/21 10:03:16;;;;;;;;;;;18.40;99.90;;;;;;4990573;28;19920;-80
2021/03/21 10:05:55;;;;;;;;;;;18.40;99.90;;;;;;4998258;28;19928;-78
2021/03/21 10:08:40;;;;;;;;;;;18.50;99.90;;;;;;5019675;28;20726;-75
2021/03/21 10:11:08;;;;;;;;;;;18.50;99.90;;;;;;5017950;28;19917;-76
2021/03/21 10:13:40;;;;;;;;;;;18.50;99.90;;;;;;5017101;28;19917;-81
2021/03/21 10:16:18;;;;;;;;;;;18.60;99.90;;;;;;5013190;28;19914;-80
2021/03/21 10:18:46;;;;;;;;;;;18.60;99.90;;;;;;4996405;28;19921;-79
2021/03/21 10:21:22;;;;;;;;;;;18.60;99.90;;;;;;5012300;28;19977;-80
2021/03/21 10:23:56;;;;;;;;;;;18.50;99.90;;;;;;5012941;28;19929;-81
2021/03/21 10:26:25;;;;;;;;;;;18.40;99.90;;;;;;5012533;28;19967;-81
2021/03/21 10:28:57;;;;;;;;;;;18.30;99.90;;;;;;5024884;28;19917;-75
2021/03/21 10:31:24;;;;;;;;;;;18.30;99.90;;;;;;5032694;28;19932;-78
2021/03/21 10:33:51;;;;;;;;;;;18.30;99.90;;;;;;5032143;28;20000;-77
2021/03/21 10:36:36;;;;;;;;;;;18.20;99.90;;;;;;5012629;28;19916;-82
2021/03/21 10:39:03;;;;;;;;;;;18.30;99.90;;;;;;5011297;28;19936;-80
2021/03/21 10:41:48;;;;;;;;;;;18.30;99.90;;;;;;5013277;28;19910;-81
2021/03/21 10:44:15;;;;;;;;;;;18.30;99.90;;;;;;5012988;28;19917;-79
2021/03/21 10:46:46;;;;;;;;;;;18.30;99.90;;;;;;5013309;28;19958;-82
2021/03/21 10:49:12;;;;;;;;;;;18.30;99.90;;;;;;5012989;28;19917;-77
2021/03/21 10:51:57;;;;;;;;;;;18.30;99.90;;;;;;5013320;28;19913;-82
2021/03/21 10:54:27;;;;;;;;;;;18.40;99.90;;;;;;5013398;28;19913;-82
2021/03/21 10:57:15;;;;;;;;;;;18.40;99.90;;;;;;5012670;28;19975;-81
2021/03/21 11:00:01;;;;;;;;;;;18.40;99.90;;;;;;5011828;28;19956;-79
2021/03/21 11:02:27;;;;;;;;;;;18.50;99.90;;;;;;5013186;28;19913;-79
2021/03/21 11:05:05;;;;;;;;;;;18.50;99.90;;;;;;5072709;28;20022;-77
2021/03/21 11:07:34;;;;;;;;;;;18.50;99.90;;;;;;5011334;28;19913;-79
2021/03/21 11:10:04;;;;;;;;;;;18.50;99.90;;;;;;5012310;28;19921;-78
2021/03/21 11:12:39;;;;;;;;;;;18.60;99.90;;;;;;5011925;28;19913;-80
2021/03/21 11:15:28;;;;;;;;;;;18.60;99.90;;;;;;5011817;28;19924;-77
2021/03/21 11:18:00;;;;;;;;;;;18.70;99.90;;;;;;5011616;28;20382;-80
2021/03/21 11:20:29;;;;;;;;;;;18.70;99.90;;;;;;5011864;28;19917;-79
2021/03/21 11:22:56;;;;;;;;;;;18.70;99.90;;;;;;5012416;28;19998;-82
2021/03/21 11:25:34;;;;;;;;;;;18.80;99.90;;;;;;5012762;28;19917;-81
2021/03/21 11:28:01;;;;;;;;;;;18.80;99.90;;;;;;5005784;28;19917;-81
2021/03/21 11:30:28;;;;;;;;;;;18.80;99.90;;;;;;5011982;28;19928;-84
2021/03/21 11:33:15;;;;;;;;;;;18.90;99.90;;;;;;4993653;28;19920;-82
2021/03/21 11:35:42;;;;;;;;;;;18.90;99.90;;;;;;4994790;28;19982;-79
2021/03/21 11:38:28;;;;;;;;;;;19.00;99.90;;;;;;4993991;28;19920;-80
2021/03/21 11:40:56;;;;;;;;;;;19.00;99.90;;;;;;5010770;28;19913;-82
2021/03/21 11:43:22;;;;;;;;;;;19.10;99.90;;;;;;4994821;28;20000;-76
2021/03/21 11:45:50;;;;;;;;;;;19.10;99.90;;;;;;4994119;28;19921;-82
2021/03/21 11:48:22;;;;;;;;;;;19.10;99.90;;;;;;5011466;28;19924;-80
2021/03/21 11:50:53;;;;;;;;;;;19.10;99.90;;;;;;5009645;28;20008;-82
2021/03/21 11:53:24;;;;;;;;;;;19.10;99.90;;;;;;5013735;28;19935;-80
2021/03/21 11:55:55;;;;;;;;;;;19.00;99.90;;;;;;5011931;28;19913;-83
2021/03/21 11:58:40;;;;;;;;;;;19.00;99.90;;;;;;4974512;28;19925;-83
2021/03/21 12:01:32;;;;;;;;;;;19.00;99.90;;;;;;5014500;28;20090;-81
2021/03/21 12:04:04;;;;;;;;;;;19.00;99.90;;;;;;5017516;28;20355;-78
2021/03/21 12:06:38;;;;;;;;;;;18.90;99.90;;;;;;5015737;28;19921;-79
2021/03/21 12:09:13;;;;;;;;;;;19.00;99.90;;;;;;5012078;28;19954;-79
2021/03/21 12:11:41;;;;;;;;;;;19.00;99.90;;;;;;5011821;28;19914;-76
2021/03/21 12:14:21;;;;;;;;;;;19.00;99.90;;;;;;5011302;28;19913;-76
2021/03/21 12:16:47;;;;;;;;;;;18.90;99.90;;;;;;5011808;28;19925;-79
2021/03/21 12:19:23;;;;;;;;;;;18.90;99.90;;;;;;5011587;28;19962;-80
2021/03/21 12:21:51;;;;;;;;;;;18.90;99.90;;;;;;5011978;28;19909;-80
2021/03/21 12:24:21;;;;;;;;;;;18.90;99.90;;;;;;5011104;28;19921;-79
2021/03/21 12:26:52;;;;;;;;;;;19.00;99.90;;;;;;4993963;28;20379;-82
2021/03/21 12:29:25;;;;;;;;;;;18.90;99.90;;;;;;5011097;28;19965;-81
2021/03/21 12:31:53;;;;;;;;;;;18.90;99.90;;;;;;5011533;28;19956;-79
2021/03/21 12:34:22;;;;;;;;;;;18.90;99.90;;;;;;5011053;28;19970;-81
2021/03/21 12:37:07;;;;;;;;;;;18.90;99.90;;;;;;5011911;28;19909;-76
2021/03/21 12:39:37;;;;;;;;;;;19.00;99.90;;;;;;5094186;28;20453;-80
2021/03/21 12:42:04;;;;;;;;;;;19.00;99.90;;;;;;4994590;28;19909;-78
2021/03/21 12:44:35;;;;;;;;;;;19.00;99.90;;;;;;5011252;28;19976;-83
2021/03/21 12:47:04;;;;;;;;;;;19.00;99.90;;;;;;5011560;28;19933;-80
2021/03/21 12:49:43;;;;;;;;;;;19.00;99.90;;;;;;5010987;28;20387;-80
2021/03/21 12:52:13;;;;;;;;;;;19.00;99.90;;;;;;5011143;28;19913;-81
2021/03/21 12:54:41;;;;;;;;;;;19.10;99.90;;;;;;5011074;28;19923;-82
2021/03/21 12:57:12;;;;;;;;;;;19.10;99.90;;;;;;5011502;28;19910;-83
2021/03/21 12:59:41;;;;;;;;;;;19.10;99.90;;;;;;5010178;28;20291;-82
2021/03/21 13:02:14;;;;;;;;;;;19.10;99.90;;;;;;5011022;28;20359;-80
2021/03/21 13:04:40;;;;;;;;;;;19.10;99.90;;;;;;5011246;28;19917;-80
2021/03/21 13:07:08;;;;;;;;;;;19.10;99.90;;;;;;5012058;28;20012;-79
2021/03/21 13:09:35;;;;;;;;;;;19.10;99.90;;;;;;5011017;28;19913;-80
2021/03/21 13:12:02;;;;;;;;;;;19.20;99.90;;;;;;5011216;28;19909;-81
2021/03/21 13:14:29;;;;;;;;;;;19.20;99.90;;;;;;5011145;28;20008;-81
2021/03/21 13:16:59;;;;;;;;;;;19.20;99.90;;;;;;5010219;28;19935;-80
2021/03/21 13:19:25;;;;;;;;;;;19.20;99.90;;;;;;5011489;28;20479;-78
2021/03/21 13:21:52;;;;;;;;;;;19.20;99.90;;;;;;5010884;28;20384;-82
2021/03/21 13:24:18;;;;;;;;;;;19.10;99.90;;;;;;5010454;28;19928;-82
2021/03/21 13:26:45;;;;;;;;;;;19.10;99.90;;;;;;5011799;28;19920;-80
2021/03/21 13:29:18;;;;;;;;;;;19.10;99.90;;;;;;5010949;28;19924;-77
2021/03/21 13:31:44;;;;;;;;;;;19.10;99.90;;;;;;5010642;28;20001;-82
2021/03/21 13:34:12;;;;;;;;;;;19.10;99.90;;;;;;4991489;28;19920;-78
2021/03/21 13:36:40;;;;;;;;;;;19.10;99.90;;;;;;5010999;28;19920;-81
2021/03/21 13:39:06;;;;;;;;;;;19.10;99.90;;;;;;5009600;28;19913;-79
2021/03/21 13:41:33;;;;;;;;;;;19.00;99.90;;;;;;5010354;28;20361;-82
2021/03/21 13:44:00;;;;;;;;;;;19.00;99.90;;;;;;4993356;28;19914;-78
2021/03/21 13:46:27;;;;;;;;;;;19.10;99.90;;;;;;5010692;28;19917;-78
2021/03/21 13:48:54;;;;;;;;;;;19.10;99.90;;;;;;4992868;28;19955;-79
2021/03/21 13:51:27;;;;;;;;;;;19.10;99.90;;;;;;5011214;28;20304;-79
2021/03/21 13:53:54;;;;;;;;;;;19.10;99.90;;;;;;5015460;28;19997;-77
2021/03/21 13:56:24;;;;;;;;;;;19.20;99.90;;;;;;5024332;28;19910;-78
2021/03/21 13:58:52;;;;;;;;;;;19.20;99.90;;;;;;5017164;28;19909;-81
2021/03/21 14:01:20;;;;;;;;;;;19.20;99.90;;;;;;4997574;28;20425;-80
2021/03/21 14:03:49;;;;;;;;;;;19.20;99.90;;;;;;5010319;28;20354;-77
2021/03/21 14:06:16;;;;;;;;;;;19.20;99.90;;;;;;5010045;28;19916;-77
2021/03/21 14:08:42;;;;;;;;;;;19.30;99.90;;;;;;5010610;28;19996;-83
2021/03/21 14:11:09;;;;;;;;;;;19.30;99.90;;;;;;4992632;28;19924;-79
2021/03/21 14:13:36;;;;;;;;;;;19.30;99.90;;;;;;5009383;28;19917;-82
2021/03/21 14:16:03;;;;;;;;;;;19.30;99.90;;;;;;5009919;28;19959;-78
2021/03/21 14:18:29;;;;;;;;;;;19.30;99.90;;;;;;4992511;28;20340;-80
2021/03/21 14:20:56;;;;;;;;;;;19.40;99.90;;;;;;5010070;28;19920;-77
2021/03/21 14:23:26;;;;;;;;;;;19.40;99.90;;;;;;5010339;28;19922;-83
2021/03/21 14:25:53;;;;;;;;;;;19.40;99.90;;;;;;5009667;28;20350;-79
2021/03/21 14:28:20;;;;;;;;;;;19.40;99.90;;;;;;5009427;28;19913;-82
2021/03/21 14:30:48;;;;;;;;;;;19.40;99.90;;;;;;4992241;28;20016;-83
2021/03/21 14:33:18;;;;;;;;;;;19.40;99.90;;;;;;5011061;28;19913;-81
2021/03/21 14:35:45;;;;;;;;;;;19.40;99.90;;;;;;5010240;28;19909;-80
2021/03/21 14:38:13;;;;;;;;;;;19.40;99.90;;;;;;5010521;28;19996;-80
2021/03/21 14:40:40;;;;;;;;;;;19.40;99.90;;;;;;5009642;28;19920;-82
2021/03/21 14:43:08;;;;;;;;;;;19.40;99.90;;;;;;4992215;28;19914;-78
2021/03/21 14:45:35;;;;;;;;;;;19.30;99.90;;;;;;5009907;28;19922;-80
2021/03/21 23:03:35;;;;;;;;;;;18.30;99.90;;;;;;5326079;23;19933;-81
2021/03/21 23:06:02;;;;;;;;;;;18.50;99.90;;;;;;4965720;28;19969;-82
2021/03/21 23:08:29;;;;;;;;;;;18.50;99.90;;;;;;4972175;28;19926;-83